createdAt,value
2023-05-05T00:00:32.719Z,100995.15
2023-05-05T00:01:35.602Z,100992.03
2023-05-05T00:02:38.123Z,100991.38
2023-05-05T00:03:40.672Z,100990.25
2023-05-05T00:04:43.038Z,100992.69
2023-05-05T00:05:45.233Z,100986.36
2023-05-05T00:06:48.701Z,100993.91
2023-05-05T00:07:50.986Z,100995.90
2023-05-05T00:08:53.063Z,100991.91
2023-05-05T00:09:55.209Z,100994.34
2023-05-05T00:10:57.768Z,100991.22
2023-05-05T00:12:00.235Z,100993.22
2023-05-05T00:13:02.477Z,100992.44
2023-05-05T00:14:04.675Z,101004.31
2023-05-05T00:15:07.488Z,100992.44
2023-05-05T00:16:09.786Z,100996.77
2023-05-05T00:17:12.195Z,100993.13
2023-05-05T00:18:15.089Z,100994.68
2023-05-05T00:19:17.050Z,100995.90
2023-05-05T00:20:23.670Z,100995.03
2023-05-05T00:21:25.838Z,100993.81
2023-05-05T00:22:29.834Z,100994.59
2023-05-05T00:23:32.069Z,100987.14
2023-05-05T00:24:34.181Z,100987.58
2023-05-05T00:25:36.305Z,100988.35
2023-05-05T00:26:38.644Z,100984.80
2023-05-05T00:27:41.086Z,100987.91
2023-05-05T00:28:43.727Z,100993.03
2023-05-05T00:29:45.938Z,100984.61
2023-05-05T00:30:48.527Z,100993.59
2023-05-05T00:31:51.838Z,100991.16
2023-05-05T00:32:55.333Z,100991.94
2023-05-05T00:33:57.593Z,101000.27
2023-05-05T00:34:59.603Z,100997.48
2023-05-05T00:36:02.178Z,100999.39
2023-05-05T00:37:04.248Z,100991.41
2023-05-05T00:38:06.774Z,101004.41
2023-05-05T00:39:08.920Z,101003.63
2023-05-05T00:40:13.053Z,100999.73
2023-05-05T00:41:15.157Z,100998.95
2023-05-05T00:42:17.329Z,101003.28
2023-05-05T00:43:19.659Z,101007.63
2023-05-05T00:45:44.791Z,101000.88
2023-05-05T00:46:47.280Z,101014.98
2023-05-05T00:47:55.402Z,101008.95
2023-05-05T00:48:57.932Z,101006.86
2023-05-05T00:50:00.096Z,100998.44
2023-05-05T00:51:03.192Z,100999.90
2023-05-05T00:52:05.594Z,101007.78
2023-05-05T00:53:08.319Z,101004.13
2023-05-05T00:54:10.471Z,100998.45
2023-05-05T00:55:12.727Z,100997.57
2023-05-05T00:56:19.369Z,100994.36
2023-05-05T00:57:21.658Z,100992.69
2023-05-05T00:58:24.596Z,101003.36
2023-05-05T00:59:27.923Z,100998.92
2023-05-05T01:00:31.168Z,101002.05
2023-05-05T01:01:33.612Z,100995.70
2023-05-05T01:02:35.839Z,101000.59
2023-05-05T01:03:38.827Z,101005.02
2023-05-05T01:04:41.164Z,101001.12
2023-05-05T01:07:02.472Z,101007.70
2023-05-05T01:08:28.238Z,101000.89
2023-05-05T01:10:07.290Z,101003.22
2023-05-05T01:12:24.424Z,101009.50
2023-05-05T01:13:42.129Z,101002.58
2023-05-05T01:14:46.765Z,101004.92
2023-05-05T01:17:18.172Z,101000.14
2023-05-05T01:18:33.676Z,100994.69
2023-05-05T01:19:39.690Z,100992.36
2023-05-05T01:20:48.590Z,101000.01
2023-05-05T01:21:54.750Z,101000.89
2023-05-05T01:22:59.451Z,100999.45
2023-05-05T01:24:14.408Z,101002.77
2023-05-05T01:25:26.335Z,101003.31
2023-05-05T01:27:01.324Z,101001.84
2023-05-05T01:30:09.364Z,101007.28
2023-05-05T01:31:37.080Z,101004.13
2023-05-05T01:32:41.970Z,101003.72
2023-05-05T01:33:47.817Z,101005.14
2023-05-05T01:35:01.528Z,100999.69
2023-05-05T01:36:11.115Z,100990.02
2023-05-05T01:37:17.121Z,101008.73
2023-05-05T01:38:21.821Z,100998.08
2023-05-05T01:39:26.385Z,101004.41
2023-05-05T01:40:30.682Z,101005.19
2023-05-05T01:41:38.964Z,101007.17
2023-05-05T01:42:42.061Z,101006.05
2023-05-05T01:43:45.537Z,101002.06
2023-05-05T01:44:48.237Z,101011.08
2023-05-05T01:45:51.540Z,101003.10
2023-05-05T01:46:54.250Z,101005.88
2023-05-05T01:47:56.528Z,100999.08
2023-05-05T01:48:59.603Z,101009.42
2023-05-05T01:50:02.354Z,101007.41
2023-05-05T01:51:07.701Z,101007.52
2023-05-05T01:52:09.954Z,101005.96
2023-05-05T01:53:12.371Z,101010.81
2023-05-05T01:54:15.494Z,101006.48
2023-05-05T01:55:18.468Z,101014.38
2023-05-05T01:56:23.409Z,101010.03
2023-05-05T01:57:25.481Z,101012.81
2023-05-05T01:58:27.657Z,101008.39
2023-05-05T01:59:29.826Z,101009.95
2023-05-05T02:00:32.165Z,101014.28
2023-05-05T02:01:38.705Z,101005.19
2023-05-05T02:02:41.032Z,101010.64
2023-05-05T02:03:43.326Z,101013.73
2023-05-05T02:04:45.478Z,101009.31
2023-05-05T02:05:47.637Z,101010.88
2023-05-05T02:06:50.127Z,101013.21
2023-05-05T02:07:54.578Z,101016.33
2023-05-05T02:08:56.880Z,101007.66
2023-05-05T02:10:00.647Z,101008.65
2023-05-05T02:11:03.334Z,101009.08
2023-05-05T02:12:08.453Z,101013.85
2023-05-05T02:13:11.575Z,101013.85
2023-05-05T02:14:13.861Z,101011.86
2023-05-05T02:15:18.105Z,101014.38
2023-05-05T02:16:20.316Z,101016.53
2023-05-05T02:17:22.763Z,101017.52
2023-05-05T02:18:25.356Z,101013.27
2023-05-05T02:20:38.232Z,101000.77
2023-05-05T02:21:40.355Z,101015.26
2023-05-05T02:22:42.455Z,101010.49
2023-05-05T02:23:45.971Z,101003.30
2023-05-05T02:24:48.123Z,101007.98
2023-05-05T02:25:52.714Z,101006.66
2023-05-05T02:26:55.076Z,101001.89
2023-05-05T02:27:57.076Z,101002.00
2023-05-05T02:30:17.706Z,101008.83
2023-05-05T02:31:20.315Z,100999.11
2023-05-05T02:32:34.966Z,101002.58
2023-05-05T02:33:37.767Z,101003.71
2023-05-05T02:34:40.519Z,101000.50
2023-05-05T02:35:44.522Z,101002.16
2023-05-05T02:36:48.713Z,101005.88
2023-05-05T02:37:53.299Z,100999.55
2023-05-05T02:38:57.777Z,101002.00
2023-05-05T02:40:03.689Z,101002.52
2023-05-05T02:41:09.034Z,100998.19
2023-05-05T02:42:14.870Z,101002.17
2023-05-05T02:43:19.017Z,101004.52
2023-05-05T02:44:23.237Z,101002.69
2023-05-05T02:45:26.965Z,101003.91
2023-05-05T02:46:29.175Z,101006.33
2023-05-05T02:47:35.418Z,101009.53
2023-05-05T02:48:38.727Z,101005.98
2023-05-05T02:49:42.021Z,101010.31
2023-05-05T02:50:44.763Z,101005.20
2023-05-05T02:51:51.646Z,101007.65
2023-05-05T02:52:55.934Z,101008.08
2023-05-05T02:53:59.969Z,101011.20
2023-05-05T02:55:06.284Z,101011.20
2023-05-05T02:56:30.776Z,101014.75
2023-05-05T02:59:07.671Z,101005.98
2023-05-05T03:00:24.424Z,101016.47
2023-05-05T03:01:53.176Z,101021.23
2023-05-05T03:03:17.628Z,101015.34
2023-05-05T03:04:31.162Z,101023.66
2023-05-05T03:05:44.360Z,101026.78
2023-05-05T03:06:48.816Z,101029.98
2023-05-05T03:08:14.883Z,101024.95
2023-05-05T03:09:35.761Z,101018.04
2023-05-05T03:10:55.242Z,101024.44
2023-05-05T03:12:07.416Z,101028.50
2023-05-05T03:13:11.692Z,101028.94
2023-05-05T03:14:18.092Z,101028.16
2023-05-05T03:16:37.794Z,101023.23
2023-05-05T03:17:41.544Z,101038.11
2023-05-05T03:18:46.329Z,101027.53
2023-05-05T03:19:48.650Z,101034.28
2023-05-05T03:20:51.864Z,101031.94
2023-05-05T03:21:54.522Z,101026.05
2023-05-05T03:22:56.821Z,101026.83
2023-05-05T03:23:58.819Z,101039.12
2023-05-05T03:25:00.897Z,101036.50
2023-05-05T03:26:03.493Z,101039.88
2023-05-05T03:27:07.449Z,101043.86
2023-05-05T03:28:11.541Z,101034.84
2023-05-05T03:29:14.406Z,101031.01
2023-05-05T03:30:16.804Z,101022.27
2023-05-05T03:31:20.913Z,101029.45
2023-05-05T03:32:25.713Z,101031.01
2023-05-05T03:33:29.200Z,101032.58
2023-05-05T03:34:33.253Z,101026.61
2023-05-05T03:35:37.275Z,101029.38
2023-05-05T03:36:41.611Z,101019.08
2023-05-05T03:37:45.755Z,101022.70
2023-05-05T03:38:48.628Z,101020.71
2023-05-05T03:39:52.646Z,101026.96
2023-05-05T03:40:56.479Z,101024.89
2023-05-05T03:42:00.506Z,101026.45
2023-05-05T03:43:04.549Z,101029.58
2023-05-05T03:44:07.289Z,101019.63
2023-05-05T03:45:12.885Z,101025.17
2023-05-05T03:46:15.388Z,101020.41
2023-05-05T03:47:18.191Z,101021.20
2023-05-05T03:48:20.371Z,101013.74
2023-05-05T03:49:24.413Z,101019.78
2023-05-05T03:50:28.262Z,101025.33
2023-05-05T03:51:30.921Z,101021.34
2023-05-05T03:52:33.924Z,101022.55
2023-05-05T03:53:37.401Z,101022.91
2023-05-05T03:54:41.433Z,101039.53
2023-05-05T03:55:43.531Z,101024.89
2023-05-05T03:56:46.294Z,101028.09
2023-05-05T03:57:48.502Z,101028.95
2023-05-05T03:58:50.624Z,101035.41
2023-05-05T03:59:53.816Z,101022.95
2023-05-05T04:00:56.938Z,101029.23
2023-05-05T04:02:00.027Z,101037.80
2023-05-05T04:03:02.359Z,101033.28
2023-05-05T04:04:05.489Z,101044.90
2023-05-05T04:05:09.930Z,101043.91
2023-05-05T04:06:12.510Z,101045.54
2023-05-05T04:07:15.001Z,101047.58
2023-05-05T04:08:17.988Z,101044.09
2023-05-05T04:09:20.135Z,101048.84
2023-05-05T04:10:24.504Z,101045.81
2023-05-05T04:11:26.696Z,101038.72
2023-05-05T04:12:29.516Z,101037.52
2023-05-05T04:13:32.907Z,101033.19
2023-05-05T04:14:35.070Z,101042.27
2023-05-05T04:15:37.193Z,101039.92
2023-05-05T04:16:42.571Z,101046.59
2023-05-05T04:17:44.843Z,101050.14
2023-05-05T04:18:47.491Z,101042.20
2023-05-05T04:19:51.454Z,101045.33
2023-05-05T04:20:54.161Z,101046.86
2023-05-05T04:21:57.048Z,101044.88
2023-05-05T04:22:59.259Z,101041.69
2023-05-05T04:24:01.963Z,101044.03
2023-05-05T04:25:08.011Z,101053.48
2023-05-05T04:26:10.654Z,101040.37
2023-05-05T04:27:12.944Z,101043.42
2023-05-05T04:28:15.194Z,101048.87
2023-05-05T04:29:18.047Z,101046.88
2023-05-05T04:30:21.042Z,101045.32
2023-05-05T04:31:23.516Z,101050.85
2023-05-05T04:32:26.550Z,101046.88
2023-05-05T04:33:28.789Z,101052.77
2023-05-05T04:34:31.596Z,101053.91
2023-05-05T04:35:34.431Z,101054.63
2023-05-05T04:36:36.781Z,101058.54
2023-05-05T04:37:40.451Z,101048.67
2023-05-05T04:38:43.445Z,101053.42
2023-05-05T04:39:46.592Z,101053.85
2023-05-05T04:40:50.555Z,101052.77
2023-05-05T04:41:54.108Z,101056.39
2023-05-05T04:42:56.442Z,101048.87
2023-05-05T04:43:59.915Z,101052.09
2023-05-05T04:45:03.345Z,101054.08
2023-05-05T04:46:06.449Z,101047.34
2023-05-05T04:47:11.989Z,101049.65
2023-05-05T04:48:14.181Z,101052.41
2023-05-05T04:49:16.441Z,101053.55
2023-05-05T04:50:20.817Z,101054.70
2023-05-05T04:51:22.879Z,101045.55
2023-05-05T04:52:25.952Z,101054.92
2023-05-05T04:53:30.640Z,101046.11
2023-05-05T04:54:35.154Z,101048.88
2023-05-05T04:55:38.927Z,101051.22
2023-05-05T04:56:41.332Z,101051.51
2023-05-05T04:57:44.599Z,101054.56
2023-05-05T04:58:46.889Z,101054.08
2023-05-05T04:59:49.019Z,101059.52
2023-05-05T05:00:51.470Z,101062.99
2023-05-05T05:01:54.791Z,101062.64
2023-05-05T05:02:58.938Z,101059.87
2023-05-05T05:04:01.310Z,101061.43
2023-05-05T05:05:08.012Z,101059.73
2023-05-05T05:06:11.432Z,101067.19
2023-05-05T05:07:13.343Z,101068.22
2023-05-05T05:08:17.512Z,101071.27
2023-05-05T05:09:19.907Z,101067.58
2023-05-05T05:10:22.340Z,101069.50
2023-05-05T05:11:24.618Z,101066.30
2023-05-05T05:12:26.589Z,101066.98
2023-05-05T05:13:28.692Z,101066.55
2023-05-05T05:14:36.354Z,101076.34
2023-05-05T05:15:38.725Z,101073.03
2023-05-05T05:16:41.969Z,101074.41
2023-05-05T05:17:46.210Z,101080.66
2023-05-05T05:18:48.419Z,101087.77
2023-05-05T05:19:50.652Z,101084.64
2023-05-05T05:20:52.836Z,101080.73
2023-05-05T05:21:55.398Z,101081.08
2023-05-05T05:22:57.500Z,101068.79
2023-05-05T05:24:00.516Z,101072.27
2023-05-05T05:25:03.733Z,101077.27
2023-05-05T05:26:06.575Z,101072.42
2023-05-05T05:27:10.161Z,101075.82
2023-05-05T05:28:14.663Z,101076.41
2023-05-05T05:29:18.796Z,101085.08
2023-05-05T05:30:23.106Z,101081.02
2023-05-05T05:31:25.738Z,101083.27
2023-05-05T05:32:28.975Z,101087.84
2023-05-05T05:33:31.702Z,101092.36
2023-05-05T05:34:34.985Z,101094.84
2023-05-05T05:35:38.711Z,101095.36
2023-05-05T05:36:41.791Z,101098.40
2023-05-05T05:37:44.103Z,101094.20
2023-05-05T05:38:46.509Z,101094.80
2023-05-05T05:39:51.938Z,101087.38
2023-05-05T05:40:54.639Z,101077.98
2023-05-05T05:41:57.381Z,101088.00
2023-05-05T05:43:01.036Z,101080.70
2023-05-05T05:44:04.022Z,101084.16
2023-05-05T05:45:09.893Z,101082.03
2023-05-05T05:46:18.984Z,101080.30
2023-05-05T05:47:22.232Z,101084.20
2023-05-05T05:48:25.315Z,101078.47
2023-05-05T05:49:27.489Z,101083.38
2023-05-05T05:50:30.944Z,101083.03
2023-05-05T05:51:34.009Z,101080.70
2023-05-05T05:52:36.910Z,101081.13
2023-05-05T05:53:40.513Z,101082.26
2023-05-05T05:54:43.244Z,101082.59
2023-05-05T05:55:46.636Z,101078.45
2023-05-05T05:56:49.587Z,101074.55
2023-05-05T05:57:52.095Z,101078.45
2023-05-05T05:58:56.075Z,101084.45
2023-05-05T06:00:01.631Z,101092.09
2023-05-05T06:01:02.874Z,101082.02
2023-05-05T06:02:05.670Z,101077.04
2023-05-05T06:03:08.548Z,101082.30
2023-05-05T06:04:12.549Z,101080.31
2023-05-05T06:05:14.810Z,101085.56
2023-05-05T06:06:17.921Z,101083.67
2023-05-05T06:07:20.106Z,101083.91
2023-05-05T06:08:25.064Z,101082.58
2023-05-05T06:09:29.115Z,101079.36
2023-05-05T06:10:31.858Z,101090.48
2023-05-05T06:11:43.051Z,101076.91
2023-05-05T06:12:45.776Z,101079.78
2023-05-05T06:13:47.885Z,101080.02
2023-05-05T06:14:50.010Z,101081.91
2023-05-05T06:15:52.270Z,101079.66
2023-05-05T06:16:56.039Z,101085.45
2023-05-05T06:17:59.794Z,101075.43
2023-05-05T06:19:02.517Z,101084.00
2023-05-05T06:20:08.077Z,101084.19
2023-05-05T06:21:10.374Z,101086.53
2023-05-05T06:22:12.697Z,101093.42
2023-05-05T06:23:16.616Z,101081.84
2023-05-05T06:24:20.694Z,101085.41
2023-05-05T06:25:22.864Z,101094.20
2023-05-05T06:26:25.492Z,101083.41
2023-05-05T06:27:27.575Z,101087.86
2023-05-05T06:28:29.698Z,101083.85
2023-05-05T06:29:31.885Z,101078.40
2023-05-05T06:30:34.072Z,101072.39
2023-05-05T06:31:36.394Z,101073.95
2023-05-05T06:32:38.648Z,101079.84
2023-05-05T06:33:41.101Z,101073.61
2023-05-05T06:34:45.107Z,101069.61
2023-05-05T06:35:47.583Z,101075.50
2023-05-05T06:36:50.292Z,101075.39
2023-05-05T06:37:52.853Z,101075.24
2023-05-05T06:38:55.103Z,101075.24
2023-05-05T06:39:59.365Z,101081.92
2023-05-05T06:41:05.386Z,101076.90
2023-05-05T06:42:07.638Z,101080.91
2023-05-05T06:43:09.650Z,101080.46
2023-05-05T06:44:13.514Z,101078.34
2023-05-05T06:45:15.860Z,101075.62
2023-05-05T06:46:18.627Z,101076.85
2023-05-05T06:47:24.533Z,101065.89
2023-05-05T06:48:27.037Z,101076.91
2023-05-05T06:49:29.057Z,101072.77
2023-05-05T06:50:31.588Z,101071.74
2023-05-05T06:51:33.861Z,101073.59
2023-05-05T06:52:36.005Z,101067.25
2023-05-05T06:53:38.011Z,101068.03
2023-05-05T06:54:40.056Z,101066.63
2023-05-05T06:55:46.260Z,101067.41
2023-05-05T06:56:48.519Z,101071.27
2023-05-05T06:57:50.677Z,101066.34
2023-05-05T06:58:52.807Z,101068.55
2023-05-05T06:59:54.816Z,101062.73
2023-05-05T07:00:57.087Z,101075.60
2023-05-05T07:01:59.567Z,101066.66
2023-05-05T07:03:01.875Z,101066.20
2023-05-05T07:04:06.022Z,101069.32
2023-05-05T07:05:09.934Z,101067.50
2023-05-05T07:06:12.566Z,101070.13
2023-05-05T07:07:14.743Z,101072.88
2023-05-05T07:08:17.043Z,101074.89
2023-05-05T07:09:19.542Z,101073.20
2023-05-05T07:10:23.154Z,101067.02
2023-05-05T07:11:25.284Z,101070.13
2023-05-05T07:12:30.525Z,101068.73
2023-05-05T07:13:33.111Z,101066.41
2023-05-05T07:14:35.106Z,101063.94
2023-05-05T07:15:41.203Z,101064.23
2023-05-05T07:16:43.381Z,101062.22
2023-05-05T07:17:45.771Z,101068.45
2023-05-05T07:18:48.077Z,101063.97
2023-05-05T07:19:49.976Z,101064.16
2023-05-05T07:20:52.684Z,101070.22
2023-05-05T07:21:54.653Z,101063.92
2023-05-05T07:22:56.782Z,101064.70
2023-05-05T07:23:58.798Z,101075.53
2023-05-05T07:25:02.091Z,101069.31
2023-05-05T07:26:04.735Z,101062.18
2023-05-05T07:27:06.958Z,101066.20
2023-05-05T07:28:09.627Z,101069.63
2023-05-05T07:29:11.683Z,101073.52
2023-05-05T07:30:18.092Z,101073.20
2023-05-05T07:31:18.631Z,101072.23
2023-05-05T07:32:20.958Z,101070.84
2023-05-05T07:33:23.717Z,101074.80
2023-05-05T07:34:25.880Z,101067.02
2023-05-05T07:35:27.973Z,101073.98
2023-05-05T07:36:30.616Z,101073.91
2023-05-05T07:37:33.100Z,101078.72
2023-05-05T07:38:35.253Z,101075.15
2023-05-05T07:39:37.367Z,101078.27
2023-05-05T07:40:39.607Z,101071.00
2023-05-05T07:41:42.524Z,101072.48
2023-05-05T07:42:44.623Z,101081.63
2023-05-05T07:43:46.829Z,101079.30
2023-05-05T07:44:48.969Z,101070.94
2023-05-05T07:45:51.120Z,101074.50
2023-05-05T07:46:53.589Z,101072.45
2023-05-05T07:47:58.661Z,101072.52
2023-05-05T07:49:03.216Z,101070.97
2023-05-05T07:50:11.410Z,101071.55
2023-05-05T07:51:13.886Z,101065.06
2023-05-05T07:52:16.137Z,101065.19
2023-05-05T07:53:18.233Z,101070.48
2023-05-05T07:54:20.268Z,101070.36
2023-05-05T07:55:22.253Z,101068.10
2023-05-05T07:56:25.453Z,101063.96
2023-05-05T07:57:27.680Z,101070.03
2023-05-05T07:58:29.968Z,101075.02
2023-05-05T07:59:32.221Z,101075.67
2023-05-05T08:00:35.321Z,101076.91
2023-05-05T08:01:38.526Z,101074.15
2023-05-05T08:02:40.681Z,101074.53
2023-05-05T08:03:44.853Z,101067.11
2023-05-05T08:04:47.583Z,101071.32
2023-05-05T08:05:53.909Z,101070.09
2023-05-05T08:06:56.502Z,101070.09
2023-05-05T08:07:59.790Z,101059.12
2023-05-05T08:09:01.846Z,101062.70
2023-05-05T08:10:08.183Z,101068.66
2023-05-05T08:11:10.462Z,101063.58
2023-05-05T08:12:13.660Z,101062.38
2023-05-05T08:13:15.943Z,101064.26
2023-05-05T08:14:18.566Z,101070.65
2023-05-05T08:15:20.877Z,101065.84
2023-05-05T08:16:23.257Z,101063.39
2023-05-05T08:17:26.377Z,101064.62
2023-05-05T08:18:28.621Z,101065.27
2023-05-05T08:19:30.872Z,101063.05
2023-05-05T08:20:33.012Z,101061.50
2023-05-05T08:21:35.536Z,101056.23
2023-05-05T08:22:37.755Z,101068.95
2023-05-05T08:23:39.851Z,101064.44
2023-05-05T08:24:41.747Z,101066.73
2023-05-05T08:25:44.039Z,101060.83
2023-05-05T08:26:46.334Z,101061.32
2023-05-05T08:27:48.444Z,101063.02
2023-05-05T08:28:50.754Z,101061.95
2023-05-05T08:29:52.991Z,101060.12
2023-05-05T08:30:55.095Z,101060.41
2023-05-05T08:31:57.476Z,101063.69
2023-05-05T08:33:00.184Z,101064.29
2023-05-05T08:34:05.682Z,101057.47
2023-05-05T08:35:12.134Z,101063.22
2023-05-05T08:36:14.702Z,101056.86
2023-05-05T08:37:17.033Z,101056.55
2023-05-05T08:38:19.267Z,101059.51
2023-05-05T08:39:21.833Z,101059.18
2023-05-05T08:40:23.961Z,101062.75
2023-05-05T08:41:26.341Z,101056.56
2023-05-05T08:42:37.228Z,101060.59
2023-05-05T08:43:33.420Z,101064.95
2023-05-05T08:44:35.639Z,101054.07
2023-05-05T08:45:39.723Z,101047.85
2023-05-05T08:46:42.036Z,101053.44
2023-05-05T08:47:44.348Z,101053.44
2023-05-05T08:48:46.607Z,101048.95
2023-05-05T08:49:48.642Z,101055.62
2023-05-05T08:51:01.341Z,101053.91
2023-05-05T08:52:04.717Z,101056.09
2023-05-05T08:53:09.941Z,101056.11
2023-05-05T08:54:20.077Z,101053.14
2023-05-05T08:55:26.963Z,101053.44
2023-05-05T08:56:39.128Z,101053.44
2023-05-05T08:57:47.578Z,101055.30
2023-05-05T08:58:51.740Z,101053.46
2023-05-05T08:59:53.848Z,101046.63
2023-05-05T09:00:56.305Z,101052.08
2023-05-05T09:01:58.520Z,101064.47
2023-05-05T09:03:01.302Z,101054.37
2023-05-05T09:04:05.972Z,101054.69
2023-05-05T09:05:11.362Z,101053.76
2023-05-05T09:06:13.499Z,101052.83
2023-05-05T09:07:15.607Z,101057.80
2023-05-05T09:08:17.642Z,101056.24
2023-05-05T09:09:20.250Z,101054.55
2023-05-05T09:10:23.294Z,101052.52
2023-05-05T09:11:25.543Z,101052.21
2023-05-05T09:12:32.551Z,101059.50
2023-05-05T09:13:34.853Z,101053.59
2023-05-05T09:14:37.153Z,101056.25
2023-05-05T09:15:39.516Z,101050.35
2023-05-05T09:16:43.171Z,101060.14
2023-05-05T09:17:46.450Z,101055.15
2023-05-05T09:18:48.794Z,101048.19
2023-05-05T09:20:03.353Z,101057.94
2023-05-05T09:21:21.721Z,101044.45
2023-05-05T09:24:10.360Z,101052.66
2023-05-05T09:26:21.596Z,101057.78
2023-05-05T09:27:23.733Z,101055.01
2023-05-05T09:28:25.941Z,101055.17
2023-05-05T09:29:28.144Z,101047.53
2023-05-05T09:30:32.800Z,101057.34
2023-05-05T09:31:36.247Z,101047.87
2023-05-05T09:32:50.111Z,101043.05
2023-05-05T09:33:52.327Z,101045.08
2023-05-05T09:36:46.499Z,101040.39
2023-05-05T09:37:48.790Z,101050.64
2023-05-05T09:39:04.985Z,101039.48
2023-05-05T09:40:09.851Z,101042.30
2023-05-05T09:41:12.082Z,101040.89
2023-05-05T09:42:17.953Z,101027.23
2023-05-05T09:43:21.694Z,101035.16
2023-05-05T09:44:34.571Z,101031.13
2023-05-05T09:45:36.702Z,101036.55
2023-05-05T09:46:42.135Z,101039.81
2023-05-05T09:47:47.878Z,101032.67
2023-05-05T09:48:50.309Z,101035.16
2023-05-05T09:49:58.330Z,101026.00
2023-05-05T09:51:00.990Z,101022.27
2023-05-05T09:52:13.462Z,101030.49
2023-05-05T09:53:15.551Z,101030.66
2023-05-05T09:54:28.759Z,101035.00
2023-05-05T09:55:31.176Z,101040.72
2023-05-05T09:56:40.046Z,101038.89
2023-05-05T09:57:42.349Z,101033.45
2023-05-05T09:58:44.737Z,101029.87
2023-05-05T09:59:55.797Z,101028.48
2023-05-05T10:00:58.428Z,101032.05
2023-05-05T10:03:19.752Z,101034.82
2023-05-05T10:04:26.043Z,101028.16
2023-05-05T10:05:31.543Z,101021.64
2023-05-05T10:06:44.584Z,101025.39
2023-05-05T10:07:47.080Z,101022.43
2023-05-05T10:08:52.876Z,101031.13
2023-05-05T10:09:55.210Z,101031.44
2023-05-05T10:11:03.900Z,101020.27
2023-05-05T10:12:06.047Z,101021.05
2023-05-05T10:13:09.851Z,101020.58
2023-05-05T10:15:22.992Z,101023.52
2023-05-05T10:16:27.517Z,101021.03
2023-05-05T10:17:32.149Z,101015.75
2023-05-05T10:18:34.627Z,101014.52
2023-05-05T10:19:36.974Z,101015.60
2023-05-05T10:20:39.108Z,101012.66
2023-05-05T10:21:48.212Z,101014.52
2023-05-05T10:22:51.257Z,101014.80
2023-05-05T10:25:11.273Z,101006.89
2023-05-05T10:26:14.053Z,101003.17
2023-05-05T10:27:20.250Z,101010.15
2023-05-05T10:29:43.357Z,100998.16
2023-05-05T10:30:45.637Z,100992.88
2023-05-05T10:31:50.837Z,100999.56
2023-05-05T10:33:27.279Z,100992.26
2023-05-05T10:34:10.269Z,101001.42
2023-05-05T10:36:24.418Z,100996.13
2023-05-05T10:37:27.334Z,100993.49
2023-05-05T10:38:29.396Z,100996.91
2023-05-05T10:39:31.620Z,100998.92
2023-05-05T10:40:33.875Z,101000.47
2023-05-05T10:41:36.970Z,100999.06
2023-05-05T10:42:39.412Z,101001.23
2023-05-05T10:43:41.421Z,101002.13
2023-05-05T10:45:45.383Z,100994.52
2023-05-05T10:46:47.921Z,100997.31
2023-05-05T10:47:50.181Z,100999.33
2023-05-05T10:49:14.402Z,100990.63
2023-05-05T10:50:32.277Z,100999.69
2023-05-05T10:51:41.201Z,100992.39
2023-05-05T10:53:19.457Z,100993.17
2023-05-05T10:56:17.760Z,100978.25
2023-05-05T10:57:22.019Z,100977.50
2023-05-05T10:58:47.507Z,100978.27
2023-05-05T10:59:42.922Z,100986.34
2023-05-05T11:00:48.621Z,100986.17
2023-05-05T11:01:51.185Z,100983.22
2023-05-05T11:02:59.189Z,100984.88
2023-05-05T11:04:20.792Z,100981.97
2023-05-05T11:05:22.951Z,100987.84
2023-05-05T11:06:25.790Z,100986.27
2023-05-05T11:07:27.922Z,100984.55
2023-05-05T11:08:35.436Z,100983.14
2023-05-05T11:09:40.438Z,100979.37
2023-05-05T11:10:45.687Z,100980.14
2023-05-05T11:12:03.379Z,100981.39
2023-05-05T11:13:14.414Z,100985.63
2023-05-05T11:14:20.450Z,100990.92
2023-05-05T11:15:32.219Z,100974.91
2023-05-05T11:17:57.602Z,100978.03
2023-05-05T11:18:59.742Z,100977.56
2023-05-05T11:20:05.100Z,100970.98
2023-05-05T11:22:21.715Z,100978.78
2023-05-05T11:23:24.642Z,100974.13
2023-05-05T11:24:27.521Z,100964.88
2023-05-05T11:25:39.525Z,100972.16
2023-05-05T11:26:48.471Z,100968.91
2023-05-05T11:28:15.299Z,100967.50
2023-05-05T11:29:17.639Z,100959.41
2023-05-05T11:30:20.055Z,100968.25
2023-05-05T11:31:22.301Z,100974.92
2023-05-05T11:32:24.501Z,100980.11
2023-05-05T11:33:31.499Z,100973.41
2023-05-05T11:34:34.133Z,100972.33
2023-05-05T11:37:09.237Z,100963.13
2023-05-05T11:38:11.290Z,100965.48
2023-05-05T11:39:40.634Z,100961.91
2023-05-05T11:40:43.389Z,100954.58
2023-05-05T11:43:19.731Z,100954.94
2023-05-05T11:45:34.055Z,100956.23
2023-05-05T11:46:37.216Z,100953.62
2023-05-05T11:47:39.498Z,100958.63
2023-05-05T11:48:45.772Z,100956.91
2023-05-05T11:49:49.594Z,100954.22
2023-05-05T11:50:51.880Z,100956.80
2023-05-05T11:52:00.767Z,100956.92
2023-05-05T11:53:02.819Z,100947.55
2023-05-05T11:54:04.844Z,100949.11
2023-05-05T11:55:10.172Z,100954.52
2023-05-05T11:56:13.215Z,100945.91
2023-05-05T11:58:26.933Z,100947.38
2023-05-05T11:59:28.983Z,100943.31
2023-05-05T12:00:32.597Z,100953.45
2023-05-05T12:01:37.168Z,100947.73
2023-05-05T12:02:39.382Z,100937.48
2023-05-05T12:03:41.917Z,100949.47
2023-05-05T12:04:44.809Z,100947.33
2023-05-05T12:05:46.873Z,100939.14
2023-05-05T12:06:49.355Z,100932.95
2023-05-05T12:07:55.283Z,100934.79
2023-05-05T12:08:57.354Z,100931.22
2023-05-05T12:09:59.648Z,100932.95
2023-05-05T12:11:08.940Z,100926.75
2023-05-05T12:12:12.090Z,100934.56
2023-05-05T12:13:18.832Z,100926.55
2023-05-05T12:14:23.435Z,100929.05
2023-05-05T12:15:29.781Z,100929.83
2023-05-05T12:16:32.434Z,100928.58
2023-05-05T12:17:40.222Z,100923.93
2023-05-05T12:18:42.642Z,100928.31
2023-05-05T12:19:49.801Z,100923.39
2023-05-05T12:20:52.456Z,100919.28
2023-05-05T12:21:54.542Z,100922.38
2023-05-05T12:28:18.048Z,100918.63
2023-05-05T12:30:58.061Z,100918.03
2023-05-05T12:32:01.250Z,100914.23
2023-05-05T12:33:07.498Z,100917.81
2023-05-05T12:34:10.872Z,100910.97
2023-05-05T12:35:13.268Z,100912.31
2023-05-05T12:36:15.884Z,100920.83
2023-05-05T12:37:18.196Z,100907.44
2023-05-05T12:38:20.325Z,100915.17
2023-05-05T12:39:22.392Z,100910.35
2023-05-05T12:42:16.380Z,100898.91
2023-05-05T12:43:30.948Z,100902.81
2023-05-05T12:44:37.190Z,100903.89
2023-05-05T12:45:39.805Z,100904.66
2023-05-05T12:46:47.851Z,100898.91
2023-05-05T12:47:50.060Z,100899.80
2023-05-05T12:49:05.864Z,100903.94
2023-05-05T12:50:11.304Z,100892.85
2023-05-05T12:51:17.388Z,100901.55
2023-05-05T12:52:19.852Z,100895.47
2023-05-05T12:54:32.489Z,100889.88
2023-05-05T12:55:37.365Z,100889.02
2023-05-05T12:56:45.732Z,100887.26
2023-05-05T12:59:11.844Z,100885.73
2023-05-05T13:00:19.741Z,100886.11